RPB7619 SKCG-SKRG
Flight info
| Callsign | RPB7619 |
|---|---|
| Flight time | 0h 49m |
| Altitude | 29000 |
| Route | ESKAB2A ESKAB DCT UGALU/N0473F300 DCT OTU OTU3A |
| Aircraft | B738/M-SDE2E3FGHIRWXY/LB1 |
Departure
| Time | 2026-04-25 15:18 |
|---|---|
| Airport | Rafael Nuñez International Airport (SKCG) |
Arrival
| Time | 2026-04-25 16:07 |
|---|---|
| Airport | Jose Maria Córdova International Airport (SKRG) |
| Time | Latitude | Longitude | Altitude | Speed | Heading |
|---|---|---|---|---|---|
| 2026-04-25 14:48 | 10.44610 | -75.51544 | 50 ft | 0 kts | 272° |
| 2026-04-25 14:58 | 10.44609 | -75.51533 | 50 ft | 3 kts | 275° |
| 2026-04-25 14:59 | 10.44607 | -75.51512 | 50 ft | 3 kts | 279° |
| 2026-04-25 14:59 | 10.44603 | -75.51492 | 50 ft | 3 kts | 281° |
| 2026-04-25 14:59 | 10.44600 | -75.51472 | 45 ft | 3 kts | 267° |
| 2026-04-25 14:59 | 10.44601 | -75.51459 | 45 ft | 3 kts | 206° |
| 2026-04-25 15:00 | 10.44604 | -75.51457 | 50 ft | 0 kts | 182° |
| 2026-04-25 15:08 | 10.44603 | -75.51457 | 50 ft | 0 kts | 182° |
| 2026-04-25 15:08 | 10.44583 | -75.51455 | 50 ft | 5 kts | 166° |
| 2026-04-25 15:08 | 10.44556 | -75.51421 | 49 ft | 8 kts | 104° |
| 2026-04-25 15:11 | 10.44553 | -75.51371 | 50 ft | 0 kts | 95° |
| 2026-04-25 15:13 | 10.44550 | -75.51323 | 50 ft | 7 kts | 96° |
| 2026-04-25 15:13 | 10.44514 | -75.51282 | 50 ft | 10 kts | 159° |
| 2026-04-25 15:14 | 10.44438 | -75.51281 | 50 ft | 12 kts | 182° |
| 2026-04-25 15:14 | 10.44315 | -75.51287 | 50 ft | 24 kts | 182° |
| 2026-04-25 15:14 | 10.44110 | -75.51296 | 50 ft | 33 kts | 181° |
| 2026-04-25 15:14 | 10.43882 | -75.51304 | 49 ft | 32 kts | 183° |
| 2026-04-25 15:15 | 10.43673 | -75.51314 | 48 ft | 29 kts | 182° |
| 2026-04-25 15:15 | 10.43473 | -75.51321 | 47 ft | 28 kts | 182° |
| 2026-04-25 15:15 | 10.43286 | -75.51328 | 50 ft | 26 kts | 182° |
| 2026-04-25 15:15 | 10.43142 | -75.51237 | 50 ft | 24 kts | 151° |
| 2026-04-25 15:16 | 10.43070 | -75.51263 | 50 ft | 8 kts | 258° |
| 2026-04-25 15:16 | 10.43074 | -75.51315 | 50 ft | 7 kts | 276° |
| 2026-04-25 15:16 | 10.43145 | -75.51335 | 49 ft | 0 kts | 4° |
| 2026-04-25 15:17 | 10.43197 | -75.51332 | 50 ft | 24 kts | 3° |
| 2026-04-25 15:17 | 10.43645 | -75.51312 | 50 ft | 103 kts | 2° |
| 2026-04-25 15:17 | 10.44601 | -75.51272 | 52 ft | 170 kts | 3° |
| 2026-04-25 15:18 | 10.45906 | -75.51211 | 527 ft | 194 kts | 2° |
| 2026-04-25 15:18 | 10.48540 | -75.51166 | 2417 ft | 195 kts | 359° |
| 2026-04-25 15:18 | 10.49975 | -75.51206 | 2770 ft | 217 kts | 348° |
| 2026-04-25 15:19 | 10.51374 | -75.51970 | 2837 ft | 244 kts | 310° |
| 2026-04-25 15:19 | 10.51709 | -75.52449 | 3002 ft | 247 kts | 297° |
| 2026-04-25 15:19 | 10.51662 | -75.55355 | 3710 ft | 274 kts | 241° |
| 2026-04-25 15:19 | 10.50382 | -75.56762 | 4579 ft | 273 kts | 215° |
| 2026-04-25 15:20 | 10.48777 | -75.57783 | 5513 ft | 272 kts | 213° |
| 2026-04-25 15:20 | 10.47212 | -75.58882 | 6319 ft | 275 kts | 216° |
| 2026-04-25 15:20 | 10.45663 | -75.60045 | 7063 ft | 279 kts | 217° |
| 2026-04-25 15:20 | 10.44011 | -75.61097 | 7814 ft | 283 kts | 200° |
| 2026-04-25 15:21 | 10.42077 | -75.61331 | 8544 ft | 288 kts | 174° |
| 2026-04-25 15:21 | 10.40108 | -75.60863 | 9288 ft | 292 kts | 165° |
| 2026-04-25 15:21 | 10.38149 | -75.60244 | 10017 ft | 297 kts | 163° |
| 2026-04-25 15:21 | 10.36147 | -75.59581 | 10446 ft | 313 kts | 163° |
| 2026-04-25 15:22 | 10.34000 | -75.58868 | 10608 ft | 336 kts | 163° |
| 2026-04-25 15:22 | 10.31731 | -75.58120 | 10760 ft | 357 kts | 163° |
| 2026-04-25 15:22 | 10.29303 | -75.57327 | 10980 ft | 373 kts | 163° |
| 2026-04-25 15:22 | 10.26810 | -75.56519 | 11470 ft | 379 kts | 163° |
| 2026-04-25 15:23 | 10.24284 | -75.55705 | 12062 ft | 382 kts | 163° |
| 2026-04-25 15:23 | 10.21742 | -75.54889 | 12675 ft | 384 kts | 163° |
| 2026-04-25 15:23 | 10.19178 | -75.54068 | 13237 ft | 387 kts | 163° |
| 2026-04-25 15:23 | 10.16591 | -75.53243 | 13787 ft | 391 kts | 163° |
| 2026-04-25 15:24 | 10.14016 | -75.52424 | 14276 ft | 394 kts | 163° |
| 2026-04-25 15:24 | 10.11389 | -75.51588 | 14789 ft | 397 kts | 163° |
| 2026-04-25 15:24 | 10.08741 | -75.50747 | 15276 ft | 399 kts | 163° |
| 2026-04-25 15:24 | 10.07839 | -75.50460 | 15443 ft | 400 kts | 163° |
| 2026-04-25 15:25 | 10.03395 | -75.49048 | 16209 ft | 405 kts | 163° |
| 2026-04-25 15:25 | 10.00692 | -75.48189 | 16669 ft | 408 kts | 163° |
| 2026-04-25 15:25 | 9.97967 | -75.47324 | 17126 ft | 411 kts | 163° |
| 2026-04-25 15:25 | 9.95224 | -75.46453 | 17570 ft | 414 kts | 163° |
| 2026-04-25 15:26 | 9.93403 | -75.45875 | 17860 ft | 416 kts | 163° |
| 2026-04-25 15:26 | 9.90633 | -75.44997 | 18294 ft | 418 kts | 163° |
| 2026-04-25 15:26 | 9.86928 | -75.43821 | 18799 ft | 421 kts | 163° |
| 2026-04-25 15:26 | 9.85032 | -75.43219 | 19043 ft | 423 kts | 163° |
| 2026-04-25 15:27 | 9.82215 | -75.42324 | 19404 ft | 425 kts | 163° |
| 2026-04-25 15:27 | 9.79413 | -75.41435 | 19770 ft | 427 kts | 163° |
| 2026-04-25 15:27 | 9.72769 | -75.39328 | 20587 ft | 432 kts | 163° |
| 2026-04-25 15:28 | 9.70823 | -75.38712 | 20810 ft | 433 kts | 163° |
| 2026-04-25 15:28 | 9.67939 | -75.37798 | 21149 ft | 436 kts | 163° |
| 2026-04-25 15:28 | 9.65039 | -75.36879 | 21466 ft | 438 kts | 163° |
| 2026-04-25 15:28 | 9.62156 | -75.35966 | 21781 ft | 440 kts | 163° |
| 2026-04-25 15:29 | 9.59221 | -75.35036 | 22095 ft | 442 kts | 163° |
| 2026-04-25 15:29 | 9.56282 | -75.34105 | 22397 ft | 444 kts | 163° |
| 2026-04-25 15:29 | 9.53328 | -75.33169 | 22697 ft | 445 kts | 163° |
| 2026-04-25 15:29 | 9.50356 | -75.32227 | 22988 ft | 447 kts | 162° |
| 2026-04-25 15:30 | 9.47369 | -75.31280 | 23266 ft | 449 kts | 162° |
| 2026-04-25 15:30 | 9.44419 | -75.30345 | 23538 ft | 451 kts | 163° |
| 2026-04-25 15:30 | 9.41407 | -75.29392 | 23758 ft | 453 kts | 162° |
| 2026-04-25 15:30 | 9.38388 | -75.28437 | 23965 ft | 455 kts | 163° |
| 2026-04-25 15:31 | 9.35363 | -75.27480 | 24184 ft | 456 kts | 163° |
| 2026-04-25 15:31 | 9.32331 | -75.26521 | 24414 ft | 457 kts | 163° |
| 2026-04-25 15:31 | 9.29295 | -75.25561 | 24623 ft | 459 kts | 163° |
| 2026-04-25 15:31 | 9.26237 | -75.24593 | 24828 ft | 461 kts | 163° |
| 2026-04-25 15:32 | 9.23170 | -75.23624 | 25025 ft | 462 kts | 163° |
| 2026-04-25 15:32 | 9.20135 | -75.22664 | 25234 ft | 463 kts | 163° |
| 2026-04-25 15:32 | 9.17007 | -75.21676 | 25434 ft | 465 kts | 163° |
| 2026-04-25 15:33 | 9.10843 | -75.19728 | 25834 ft | 468 kts | 163° |
| 2026-04-25 15:33 | 9.07731 | -75.18745 | 26028 ft | 469 kts | 163° |
| 2026-04-25 15:33 | 9.04609 | -75.17760 | 26223 ft | 470 kts | 163° |
| 2026-04-25 15:33 | 9.01478 | -75.16771 | 26407 ft | 472 kts | 163° |
| 2026-04-25 15:34 | 8.98336 | -75.15779 | 26591 ft | 473 kts | 163° |
| 2026-04-25 15:34 | 8.95189 | -75.14786 | 26775 ft | 475 kts | 163° |
| 2026-04-25 15:34 | 8.92029 | -75.13788 | 26956 ft | 476 kts | 163° |
| 2026-04-25 15:34 | 8.89929 | -75.13126 | 27074 ft | 477 kts | 163° |
| 2026-04-25 15:35 | 8.82491 | -75.10780 | 27520 ft | 479 kts | 163° |
| 2026-04-25 15:35 | 8.79349 | -75.09789 | 27796 ft | 478 kts | 163° |
| 2026-04-25 15:35 | 8.76173 | -75.08788 | 28076 ft | 477 kts | 163° |
| 2026-04-25 15:36 | 8.69841 | -75.06792 | 28583 ft | 477 kts | 163° |
| 2026-04-25 15:36 | 8.66674 | -75.05795 | 28830 ft | 477 kts | 163° |
| 2026-04-25 15:36 | 8.63503 | -75.04797 | 29057 ft | 477 kts | 163° |
| 2026-04-25 15:37 | 8.60320 | -75.03795 | 29271 ft | 478 kts | 163° |
| 2026-04-25 15:37 | 8.57145 | -75.02794 | 29543 ft | 477 kts | 163° |
| 2026-04-25 15:37 | 8.53965 | -75.01793 | 29860 ft | 476 kts | 163° |
| 2026-04-25 15:37 | 8.50851 | -75.00812 | 30146 ft | 475 kts | 163° |
| 2026-04-25 15:38 | 8.47690 | -74.99817 | 30412 ft | 473 kts | 163° |
| 2026-04-25 15:38 | 8.44552 | -74.98829 | 30721 ft | 471 kts | 163° |
| 2026-04-25 15:38 | 8.41426 | -74.97846 | 30968 ft | 470 kts | 163° |
| 2026-04-25 15:38 | 8.38286 | -74.96858 | 30954 ft | 472 kts | 163° |
| 2026-04-25 15:39 | 8.32025 | -74.94889 | 30969 ft | 469 kts | 163° |
| 2026-04-25 15:39 | 8.25801 | -74.92932 | 30977 ft | 467 kts | 163° |
| 2026-04-25 15:40 | 8.20649 | -74.91313 | 30973 ft | 466 kts | 163° |
| 2026-04-25 15:40 | 8.13448 | -74.89051 | 30979 ft | 465 kts | 163° |
| 2026-04-25 15:41 | 8.07265 | -74.87109 | 30978 ft | 465 kts | 163° |
| 2026-04-25 15:41 | 8.01104 | -74.85175 | 30981 ft | 465 kts | 162° |
| 2026-04-25 15:42 | 7.94898 | -74.83228 | 30983 ft | 466 kts | 162° |
| 2026-04-25 15:42 | 7.88719 | -74.81290 | 30986 ft | 466 kts | 162° |
| 2026-04-25 15:43 | 7.82514 | -74.79345 | 30985 ft | 466 kts | 162° |
| 2026-04-25 15:43 | 7.76313 | -74.77404 | 30989 ft | 466 kts | 162° |
| 2026-04-25 15:44 | 7.70146 | -74.75471 | 30991 ft | 465 kts | 162° |
| 2026-04-25 15:44 | 7.67010 | -74.74696 | 30970 ft | 465 kts | 174° |
| 2026-04-25 15:44 | 7.63789 | -74.74487 | 31014 ft | 463 kts | 176° |
| 2026-04-25 15:45 | 7.57375 | -74.74173 | 30998 ft | 463 kts | 176° |
| 2026-04-25 15:45 | 7.51987 | -74.73886 | 30992 ft | 462 kts | 176° |
| 2026-04-25 15:46 | 7.44523 | -74.73447 | 31002 ft | 461 kts | 176° |
| 2026-04-25 15:46 | 7.38115 | -74.73058 | 31000 ft | 461 kts | 176° |
| 2026-04-25 15:47 | 7.31709 | -74.72671 | 30998 ft | 460 kts | 176° |
| 2026-04-25 15:47 | 7.25346 | -74.72288 | 31010 ft | 459 kts | 176° |
| 2026-04-25 15:48 | 7.18970 | -74.71905 | 31012 ft | 459 kts | 176° |
| 2026-04-25 15:48 | 7.12585 | -74.71524 | 31008 ft | 459 kts | 175° |
| 2026-04-25 15:49 | 7.06190 | -74.71140 | 31012 ft | 459 kts | 176° |
| 2026-04-25 15:49 | 7.03001 | -74.71369 | 31007 ft | 461 kts | 192° |
| 2026-04-25 15:49 | 6.99981 | -74.72431 | 31001 ft | 463 kts | 207° |
| 2026-04-25 15:50 | 6.94666 | -74.76116 | 31024 ft | 465 kts | 215° |
| 2026-04-25 15:50 | 6.89481 | -74.80009 | 31024 ft | 466 kts | 215° |
| 2026-04-25 15:51 | 6.86867 | -74.81956 | 30761 ft | 470 kts | 214° |
| 2026-04-25 15:51 | 6.85108 | -74.83255 | 30334 ft | 474 kts | 214° |
| 2026-04-25 15:51 | 6.81593 | -74.85834 | 29516 ft | 468 kts | 214° |
| 2026-04-25 15:51 | 6.78961 | -74.87756 | 28944 ft | 463 kts | 214° |
| 2026-04-25 15:52 | 6.76359 | -74.89653 | 28392 ft | 459 kts | 214° |
| 2026-04-25 15:52 | 6.73779 | -74.91532 | 27844 ft | 454 kts | 214° |
| 2026-04-25 15:52 | 6.71230 | -74.93389 | 27308 ft | 450 kts | 214° |
| 2026-04-25 15:52 | 6.68737 | -74.95206 | 26790 ft | 446 kts | 215° |
| 2026-04-25 15:53 | 6.66235 | -74.97029 | 26262 ft | 443 kts | 215° |
| 2026-04-25 15:53 | 6.63739 | -74.98849 | 25724 ft | 440 kts | 215° |
| 2026-04-25 15:53 | 6.61264 | -75.00652 | 25191 ft | 437 kts | 215° |
| 2026-04-25 15:53 | 6.58834 | -75.02423 | 24658 ft | 435 kts | 215° |
| 2026-04-25 15:54 | 6.56387 | -75.04205 | 24127 ft | 433 kts | 215° |
| 2026-04-25 15:54 | 6.53950 | -75.05981 | 23600 ft | 431 kts | 216° |
| 2026-04-25 15:54 | 6.51527 | -75.07748 | 22994 ft | 429 kts | 216° |
| 2026-04-25 15:54 | 6.49116 | -75.09507 | 22456 ft | 425 kts | 216° |
| 2026-04-25 15:55 | 6.46729 | -75.11248 | 21930 ft | 422 kts | 216° |
| 2026-04-25 15:55 | 6.44373 | -75.12965 | 21409 ft | 418 kts | 216° |
| 2026-04-25 15:55 | 6.42017 | -75.14679 | 20903 ft | 415 kts | 216° |
| 2026-04-25 15:55 | 6.39636 | -75.16291 | 20383 ft | 412 kts | 207° |
| 2026-04-25 15:56 | 6.36978 | -75.17254 | 19854 ft | 411 kts | 195° |
| 2026-04-25 15:56 | 6.34199 | -75.17984 | 19199 ft | 412 kts | 194° |
| 2026-04-25 15:56 | 6.31405 | -75.18695 | 18548 ft | 415 kts | 194° |
| 2026-04-25 15:56 | 6.28599 | -75.19416 | 17923 ft | 414 kts | 195° |
| 2026-04-25 15:57 | 6.25826 | -75.20143 | 17411 ft | 409 kts | 195° |
| 2026-04-25 15:57 | 6.23088 | -75.20876 | 16911 ft | 404 kts | 195° |
| 2026-04-25 15:57 | 6.20383 | -75.21607 | 16434 ft | 400 kts | 195° |
| 2026-04-25 15:57 | 6.17744 | -75.22325 | 15965 ft | 396 kts | 195° |
| 2026-04-25 15:58 | 6.15098 | -75.23046 | 15495 ft | 392 kts | 196° |
| 2026-04-25 15:58 | 6.12480 | -75.23761 | 15055 ft | 388 kts | 196° |
| 2026-04-25 15:58 | 6.09917 | -75.24460 | 14900 ft | 375 kts | 196° |
| 2026-04-25 15:58 | 6.07425 | -75.25140 | 14699 ft | 364 kts | 196° |
| 2026-04-25 15:59 | 6.05012 | -75.25798 | 14523 ft | 353 kts | 196° |
| 2026-04-25 15:59 | 6.02670 | -75.26438 | 14370 ft | 343 kts | 196° |
| 2026-04-25 15:59 | 6.00397 | -75.27059 | 14216 ft | 334 kts | 196° |
| 2026-04-25 15:59 | 5.98192 | -75.27661 | 14072 ft | 321 kts | 196° |
| 2026-04-25 16:00 | 5.96095 | -75.28233 | 13924 ft | 312 kts | 196° |
| 2026-04-25 16:00 | 5.95389 | -75.28425 | 13889 ft | 309 kts | 196° |
| 2026-04-25 16:00 | 5.92050 | -75.29333 | 13819 ft | 289 kts | 196° |
| 2026-04-25 16:00 | 5.90144 | -75.29924 | 13561 ft | 284 kts | 208° |
| 2026-04-25 16:01 | 5.88662 | -75.31112 | 13434 ft | 273 kts | 232° |
| 2026-04-25 16:01 | 5.87788 | -75.32786 | 13130 ft | 271 kts | 253° |
| 2026-04-25 16:01 | 5.87567 | -75.34648 | 12870 ft | 268 kts | 268° |
| 2026-04-25 16:01 | 5.87555 | -75.36517 | 12587 ft | 267 kts | 269° |
| 2026-04-25 16:02 | 5.87554 | -75.38381 | 12310 ft | 266 kts | 269° |
| 2026-04-25 16:02 | 5.87673 | -75.40231 | 11995 ft | 267 kts | 286° |
| 2026-04-25 16:02 | 5.88641 | -75.41786 | 11721 ft | 267 kts | 321° |
| 2026-04-25 16:02 | 5.90336 | -75.42503 | 11420 ft | 269 kts | 355° |
| 2026-04-25 16:03 | 5.92193 | -75.42355 | 11175 ft | 268 kts | 6° |
| 2026-04-25 16:03 | 5.94030 | -75.42223 | 10918 ft | 268 kts | 360° |
| 2026-04-25 16:03 | 5.95905 | -75.42225 | 10603 ft | 270 kts | 358° |
| 2026-04-25 16:03 | 5.97778 | -75.42245 | 10261 ft | 266 kts | 358° |
| 2026-04-25 16:04 | 5.99590 | -75.42255 | 9889 ft | 255 kts | 359° |
| 2026-04-25 16:04 | 6.01328 | -75.42260 | 9568 ft | 243 kts | 359° |
| 2026-04-25 16:04 | 6.02984 | -75.42265 | 9274 ft | 233 kts | 359° |
| 2026-04-25 16:04 | 6.04564 | -75.42271 | 9005 ft | 222 kts | 358° |
| 2026-04-25 16:05 | 6.06056 | -75.42276 | 8735 ft | 212 kts | 359° |
| 2026-04-25 16:05 | 6.07499 | -75.42280 | 8479 ft | 201 kts | 358° |
| 2026-04-25 16:05 | 6.10196 | -75.42290 | 7929 ft | 186 kts | 359° |
| 2026-04-25 16:06 | 6.11460 | -75.42292 | 7604 ft | 177 kts | 358° |
| 2026-04-25 16:06 | 6.12668 | -75.42315 | 7387 ft | 171 kts | 0° |
| 2026-04-25 16:06 | 6.13842 | -75.42300 | 7175 ft | 167 kts | 0° |
| 2026-04-25 16:06 | 6.15022 | -75.42308 | 7015 ft | 169 kts | 360° |
| 2026-04-25 16:07 | 6.16097 | -75.42311 | 6983 ft | 131 kts | 359° |
| 2026-04-25 16:07 | 6.16373 | -75.42313 | 6985 ft | 94 kts | 0° |
| 2026-04-25 16:07 | 6.16970 | -75.42342 | 7016 ft | 34 kts | 341° |
| 2026-04-25 16:07 | 6.17101 | -75.42407 | 7019 ft | 8 kts | 329° |
| 2026-04-25 16:08 | 6.17147 | -75.42433 | 7016 ft | 8 kts | 330° |
| 2026-04-25 16:08 | 6.17187 | -75.42465 | 7018 ft | 7 kts | 299° |
| 2026-04-25 16:08 | 6.17191 | -75.42512 | 7016 ft | 6 kts | 270° |
| 2026-04-25 16:08 | 6.17190 | -75.42550 | 7016 ft | 2 kts | 269° |
| 2026-04-25 16:09 | 6.17190 | -75.42567 | 7016 ft | 2 kts | 269° |
| 2026-04-25 16:09 | 6.17190 | -75.42583 | 7016 ft | 3 kts | 268° |
| 2026-04-25 16:09 | 6.17178 | -75.42612 | 7019 ft | 5 kts | 221° |
| 2026-04-25 16:09 | 6.17144 | -75.42616 | 7016 ft | 5 kts | 179° |
| 2026-04-25 16:10 | 6.17109 | -75.42615 | 7015 ft | 5 kts | 179° |
| 2026-04-25 16:10 | 6.17075 | -75.42626 | 7016 ft | 5 kts | 210° |
| 2026-04-25 16:10 | 6.17052 | -75.42640 | 7019 ft | 6 kts | 213° |
| 2026-04-25 16:10 | 6.17035 | -75.42654 | 7019 ft | 1 kts | 218° |
| 2026-04-25 16:11 | 6.17017 | -75.42678 | 7016 ft | 5 kts | 268° |
| 2026-04-25 16:11 | 6.17034 | -75.42706 | 7016 ft | 4 kts | 306° |
| 2026-04-25 16:11 | 6.17038 | -75.42710 | 7015 ft | 0 kts | 306° |